Time;durP1;ratioP1;P1;durP2;ratioP2;P2;SDS_P1;SDS_P2;PMS_P1;PMS_P2;Temp;Humidity;BMP_temperature;BMP_pressure;BME280_temperature;BME280_humidity;BME280_pressure;Samples;Min_cycle;Max_cycle;Signal;HPM_P1;HPM_P2
2022/06/16 00:00:08;;;;;;;5.25;3.63;;;16.70;79.60;;;;;;5009448;28;20026;-47
2022/06/16 00:02:49;;;;;;;6.53;3.53;;;16.60;79.70;;;;;;5008213;28;20057;-48
2022/06/16 00:05:19;;;;;;;7.03;3.53;;;16.70;80.00;;;;;;5009866;28;20080;-46
2022/06/16 00:07:45;;;;;;;8.45;3.67;;;16.60;79.90;;;;;;5027231;28;20025;-47
2022/06/16 00:10:12;;;;;;;7.05;4.00;;;16.60;80.00;;;;;;5012260;28;20029;-48
2022/06/16 00:12:38;;;;;;;5.78;3.30;;;16.60;79.90;;;;;;5009770;28;20360;-47
2022/06/16 00:15:06;;;;;;;5.30;3.50;;;16.60;80.00;;;;;;5007930;28;20466;-46
2022/06/16 00:17:31;;;;;;;8.00;3.22;;;16.60;80.00;;;;;;5009217;28;20403;-48
2022/06/16 00:19:57;;;;;;;8.65;4.22;;;16.60;80.10;;;;;;5008421;28;20033;-49
2022/06/16 00:22:22;;;;;;;4.72;3.50;;;16.50;80.30;;;;;;5009147;28;20076;-48
2022/06/16 00:24:48;;;;;;;5.30;3.72;;;16.50;80.30;;;;;;5008966;28;20018;-46
2022/06/16 00:27:13;;;;;;;7.47;3.08;;;16.50;80.40;;;;;;5009049;28;20060;-49
2022/06/16 00:29:39;;;;;;;11.23;3.67;;;16.40;80.60;;;;;;5008370;28;20277;-46
2022/06/16 00:32:05;;;;;;;4.80;3.38;;;16.40;80.80;;;;;;5008974;28;20030;-47
2022/06/16 00:34:31;;;;;;;5.38;4.15;;;16.40;81.20;;;;;;5007390;28;20487;-45
2022/06/16 00:36:57;;;;;;;5.95;3.97;;;16.30;81.60;;;;;;5019959;28;20036;-46
2022/06/16 00:39:22;;;;;;;4.68;3.30;;;16.20;81.80;;;;;;5018369;28;20389;-45
2022/06/16 00:41:48;;;;;;;6.30;3.50;;;16.20;81.70;;;;;;5008217;28;20061;-45
2022/06/16 00:44:38;;;;;;;8.43;4.05;;;16.20;81.70;;;;;;5008918;28;20517;-45
2022/06/16 00:47:04;;;;;;;5.97;3.38;;;16.10;82.20;;;;;;5008830;28;20177;-46
2022/06/16 00:49:30;;;;;;;5.20;3.80;;;16.10;82.50;;;;;;5008045;28;20109;-46
2022/06/16 00:52:02;;;;;;;9.23;3.95;;;16.00;82.70;;;;;;5008553;28;20180;-46
2022/06/16 00:54:35;;;;;;;5.47;3.60;;;16.00;82.80;;;;;;5008709;28;20022;-46
2022/06/16 00:57:17;;;;;;;5.65;3.83;;;16.00;83.10;;;;;;5008761;28;20037;-46
2022/06/16 00:59:43;;;;;;;6.60;3.85;;;15.90;83.40;;;;;;5007888;28;20403;-46
2022/06/16 01:02:10;;;;;;;5.93;4.03;;;15.90;83.60;;;;;;5008850;28;20034;-46
2022/06/16 01:04:52;;;;;;;7.50;3.65;;;15.80;83.80;;;;;;5008390;28;20034;-48
2022/06/16 01:07:23;;;;;;;7.78;4.38;;;15.80;84.20;;;;;;5022613;28;20021;-44
2022/06/16 01:09:49;;;;;;;7.20;4.07;;;15.70;84.60;;;;;;5013850;28;20045;-46
2022/06/16 01:15:42;;;;;;;7.10;3.95;;;15.70;85.40;;;;;;5008766;28;20533;-45
2022/06/16 01:18:13;;;;;;;5.35;3.65;;;15.70;85.60;;;;;;5008847;28;20026;-46
2022/06/16 01:20:43;;;;;;;7.45;4.13;;;15.60;85.80;;;;;;5007560;28;20097;-45
2022/06/16 01:23:39;;;;;;;6.13;3.63;;;15.60;86.00;;;;;;5010113;28;20224;-48
2022/06/16 01:26:19;;;;;;;4.75;3.22;;;15.60;86.10;;;;;;5012401;28;20395;-45
2022/06/16 01:29:19;;;;;;;5.20;3.60;;;15.50;86.80;;;;;;5012360;28;20030;-45
2022/06/16 01:31:54;;;;;;;5.82;3.15;;;15.50;87.40;;;;;;5011580;28;20029;-47
2022/06/16 01:34:30;;;;;;;4.18;3.00;;;15.50;87.00;;;;;;5011866;28;20026;-45
2022/06/16 01:37:08;;;;;;;5.97;3.55;;;15.50;87.20;;;;;;5023258;28;20052;-45
2022/06/16 01:39:58;;;;;;;4.07;3.30;;;15.50;87.90;;;;;;5023086;28;20495;-45
2022/06/16 01:42:31;;;;;;;7.47;3.15;;;15.40;88.30;;;;;;5032054;28;20057;-44
2022/06/16 01:45:06;;;;;;;5.18;3.38;;;15.40;89.00;;;;;;5031940;28;20060;-45
2022/06/16 01:47:34;;;;;;;5.28;3.03;;;15.30;89.70;;;;;;5030604;28;20033;-46
2022/06/16 01:50:14;;;;;;;5.80;3.40;;;15.30;89.80;;;;;;5031129;28;20356;-45
2022/06/16 01:52:46;;;;;;;7.93;3.60;;;15.30;90.20;;;;;;5031625;28;20101;-45
2022/06/16 01:55:17;;;;;;;4.43;3.30;;;15.20;90.30;;;;;;5031710;28;20029;-45
2022/06/16 01:57:46;;;;;;;;;;;15.20;90.50;;;;;;5031940;28;20128;-44
2022/06/16 02:00:23;;;;;;;6.05;4.05;;;15.20;90.70;;;;;;5030704;28;19905;-44
2022/06/16 02:03:04;;;;;;;4.55;3.78;;;15.20;91.00;;;;;;5031197;28;20025;-47
2022/06/16 02:05:56;;;;;;;7.25;3.70;;;15.20;91.20;;;;;;5030980;28;20021;-44
2022/06/16 02:08:44;;;;;;;6.18;3.97;;;15.20;91.30;;;;;;5027714;28;20053;-45
2022/06/16 02:11:16;;;;;;;7.93;4.38;;;15.10;91.60;;;;;;5010462;28;20042;-45
2022/06/16 02:13:49;;;;;;;6.43;3.75;;;15.20;91.80;;;;;;5011470;28;20556;-45
2022/06/16 02:16:27;;;;;;;7.45;4.22;;;15.20;91.80;;;;;;5018347;28;20026;-44
2022/06/16 02:18:55;;;;;;;6.13;4.18;;;15.20;92.00;;;;;;5029630;28;20025;-46
2022/06/16 02:21:43;;;;;;;7.22;4.07;;;15.20;92.50;;;;;;5029698;28;20021;-44
2022/06/16 02:24:13;;;;;;;6.30;4.28;;;15.20;92.60;;;;;;5027392;28;20482;-45
2022/06/16 02:26:38;;;;;;;7.57;4.05;;;15.10;92.70;;;;;;5029478;28;20084;-44
2022/06/16 02:29:22;;;;;;;6.88;4.28;;;15.10;92.70;;;;;;5030458;28;20491;-44
2022/06/16 02:32:01;;;;;;;5.40;3.92;;;15.10;92.90;;;;;;5027905;28;20039;-45
2022/06/16 02:34:39;;;;;;;6.05;4.15;;;15.10;93.10;;;;;;5029315;28;20095;-44
2022/06/16 02:37:28;;;;;;;6.13;4.60;;;15.00;93.20;;;;;;5030817;28;20032;-45
2022/06/16 02:40:08;;;;;;;8.27;4.22;;;15.00;93.30;;;;;;5021186;28;20021;-44
2022/06/16 02:42:58;;;;;;;6.18;4.10;;;15.00;94.10;;;;;;5027982;28;20455;-44
2022/06/16 02:45:34;;;;;;;6.68;4.43;;;15.00;94.20;;;;;;5030951;28;20033;-44
2022/06/16 02:48:16;;;;;;;6.93;4.30;;;14.90;94.10;;;;;;5030935;28;20128;-45
2022/06/16 02:50:57;;;;;;;7.35;4.32;;;14.90;94.30;;;;;;5028557;28;20022;-46
2022/06/16 02:53:46;;;;;;;5.63;4.40;;;15.00;94.70;;;;;;5030543;28;20167;-45
2022/06/16 02:56:34;;;;;;;5.82;3.97;;;15.00;94.50;;;;;;5030430;28;20096;-45
2022/06/16 02:59:06;;;;;;;7.95;4.90;;;15.00;94.50;;;;;;5029084;28;20028;-45
2022/06/16 03:01:32;;;;;;;5.18;4.40;;;14.90;94.50;;;;;;5029460;28;20495;-44
2022/06/16 03:04:08;;;;;;;7.03;4.43;;;15.00;94.70;;;;;;5030124;28;20021;-44
2022/06/16 03:06:34;;;;;;;7.97;4.68;;;14.90;94.70;;;;;;5029856;28;20014;-45
2022/06/16 03:08:59;;;;;;;7.07;4.25;;;14.90;94.80;;;;;;5022953;28;20088;-45
2022/06/16 03:11:26;;;;;;;6.60;4.25;;;14.90;94.80;;;;;;5009808;28;20439;-45
2022/06/16 03:13:51;;;;;;;5.65;4.00;;;14.90;95.00;;;;;;5010584;28;20249;-44
2022/06/16 03:16:17;;;;;;;6.22;4.60;;;14.80;95.20;;;;;;5009007;28;20038;-45
2022/06/16 03:18:42;;;;;;;6.57;4.25;;;14.80;95.30;;;;;;5010404;28;20030;-45
2022/06/16 03:21:09;;;;;;;5.65;3.72;;;14.80;95.90;;;;;;5009698;28;20101;-46
2022/06/16 03:23:35;;;;;;;6.85;3.95;;;14.80;95.90;;;;;;5010152;28;20030;-46
2022/06/16 03:26:01;;;;;;;7.85;4.55;;;14.80;96.40;;;;;;5010185;28;20022;-45
2022/06/16 03:28:27;;;;;;;7.43;4.85;;;14.70;96.50;;;;;;5010095;28;20387;-45
2022/06/16 03:30:52;;;;;;;12.15;5.53;;;14.70;96.80;;;;;;5009426;28;20280;-44
2022/06/16 03:33:19;;;;;;;7.22;4.35;;;14.70;96.60;;;;;;5010121;28;20032;-45
2022/06/16 03:35:44;;;;;;;6.88;4.65;;;14.70;96.90;;;;;;5011370;28;20057;-44
2022/06/16 03:38:35;;;;;;;8.43;5.28;;;14.70;96.90;;;;;;5028963;28;20483;-46
2022/06/16 03:41:01;;;;;;;6.65;4.72;;;14.80;97.10;;;;;;5027601;28;20107;-46
2022/06/16 03:43:26;;;;;;;6.95;4.75;;;14.80;96.90;;;;;;5028774;28;20060;-45
2022/06/16 03:45:52;;;;;;;11.38;4.80;;;14.80;97.00;;;;;;5028755;28;20107;-44
2022/06/16 03:48:17;;;;;;;8.70;5.03;;;14.80;96.80;;;;;;5028964;28;20025;-45
2022/06/16 03:50:43;;;;;;;6.55;5.05;;;14.80;96.70;;;;;;5027912;28;20017;-44
2022/06/16 03:53:08;;;;;;;7.20;4.93;;;14.90;96.90;;;;;;5028207;28;20495;-46
2022/06/16 03:55:34;;;;;;;8.60;4.53;;;14.90;96.50;;;;;;5027938;28;20013;-46
2022/06/16 03:58:00;;;;;;;6.22;4.80;;;14.90;96.50;;;;;;5029248;28;20029;-45
2022/06/16 04:00:26;;;;;;;9.30;4.88;;;15.00;96.50;;;;;;5028794;28;20529;-44
2022/06/16 04:05:37;;;;;;;13.05;4.95;;;15.10;95.90;;;;;;5029299;28;20406;-45
2022/06/16 04:08:03;;;;;;;7.43;5.15;;;15.00;96.20;;;;;;5029096;28;20364;-47
2022/06/16 04:10:28;;;;;;;9.70;4.63;;;15.10;96.10;;;;;;5009482;28;20026;-47
2022/06/16 04:12:54;;;;;;;6.68;4.32;;;15.10;96.10;;;;;;5007930;28;20026;-49
2022/06/16 04:15:20;;;;;;;8.35;4.60;;;15.10;96.10;;;;;;5009270;28;20134;-54
2022/06/16 04:17:45;;;;;;;7.40;4.85;;;15.20;95.90;;;;;;5009664;28;20090;-54
2022/06/16 04:20:14;;;;;;;7.22;4.68;;;15.20;96.20;;;;;;5008546;28;20021;-54
2022/06/16 04:22:41;;;;;;;6.22;4.40;;;15.30;95.90;;;;;;5007985;28;20030;-53
2022/06/16 04:25:12;;;;;;;6.97;4.80;;;15.30;95.90;;;;;;5009243;28;20179;-53
2022/06/16 04:27:38;;;;;;;6.55;4.72;;;15.40;95.60;;;;;;5009064;28;20045;-53
2022/06/16 04:30:04;;;;;;;6.03;4.68;;;15.40;95.50;;;;;;5008331;28;20053;-54
2022/06/16 04:32:30;;;;;;;7.93;4.93;;;15.40;94.90;;;;;;5008862;28;20475;-54
2022/06/16 04:34:55;;;;;;;6.68;4.30;;;15.50;95.50;;;;;;5007468;28;20034;-54
2022/06/16 04:37:21;;;;;;;6.47;4.60;;;15.50;96.10;;;;;;5023279;28;20368;-54
2022/06/16 04:39:47;;;;;;;8.23;4.63;;;15.50;96.00;;;;;;5013168;28;20034;-54
2022/06/16 04:42:12;;;;;;;8.35;4.65;;;15.50;95.70;;;;;;5009228;28;20515;-54
2022/06/16 04:44:40;;;;;;;6.30;4.53;;;15.50;96.50;;;;;;5007358;28;20030;-54
2022/06/16 04:47:06;;;;;;;7.32;4.55;;;15.50;95.90;;;;;;5007369;28;20099;-54
2022/06/16 04:49:33;;;;;;;6.95;4.53;;;15.50;95.20;;;;;;5008289;28;20025;-54
2022/06/16 04:51:59;;;;;;;7.93;4.88;;;15.50;95.10;;;;;;5008480;28;20446;-54
2022/06/16 04:54:24;;;;;;;6.03;4.30;;;15.50;94.90;;;;;;5008628;28;20100;-54
2022/06/16 04:56:51;;;;;;;6.63;4.32;;;15.50;95.10;;;;;;5009512;28;20026;-54
2022/06/16 04:59:16;;;;;;;9.65;4.82;;;15.60;95.50;;;;;;5011733;28;20065;-54
2022/06/16 05:01:42;;;;;;;7.47;4.50;;;15.70;95.80;;;;;;5013213;28;20068;-54
2022/06/16 05:04:08;;;;;;;10.02;4.50;;;15.70;95.40;;;;;;5012687;28;20109;-54
2022/06/16 05:06:33;;;;;;;5.82;4.00;;;15.80;95.60;;;;;;5021482;28;20029;-54
2022/06/16 05:08:59;;;;;;;10.50;4.32;;;15.90;95.60;;;;;;5026397;28;20028;-54
2022/06/16 05:11:24;;;;;;;7.95;4.53;;;15.90;95.20;;;;;;5012987;28;20060;-54
2022/06/16 05:13:49;;;;;;;6.32;4.55;;;16.00;95.60;;;;;;5013507;28;20127;-54
2022/06/16 05:16:15;;;;;;;6.72;4.32;;;16.00;95.50;;;;;;5013428;28;20161;-55
2022/06/16 05:18:41;;;;;;;5.97;3.97;;;16.00;95.10;;;;;;5013484;28;20033;-55
2022/06/16 05:21:12;;;;;;;10.38;4.38;;;16.10;95.50;;;;;;5012836;28;20022;-55
2022/06/16 05:23:37;;;;;;;9.27;4.47;;;16.00;94.20;;;;;;5013502;28;20419;-55
2022/06/16 05:26:04;;;;;;;7.10;3.80;;;16.10;94.20;;;;;;5013379;28;20026;-54
2022/06/16 05:28:30;;;;;;;5.22;4.00;;;16.10;95.00;;;;;;5013049;28;20117;-55
2022/06/16 05:30:56;;;;;;;6.25;4.03;;;16.10;94.70;;;;;;5012396;28;20026;-55
2022/06/16 05:33:22;;;;;;;8.32;4.10;;;16.10;94.70;;;;;;5011298;28;20039;-55
2022/06/16 05:35:58;;;;;;;8.57;4.70;;;16.10;94.10;;;;;;5011409;28;20021;-55
2022/06/16 05:38:24;;;;;;;10.05;4.57;;;16.10;94.20;;;;;;5011096;28;20404;-54
2022/06/16 05:41:04;;;;;;;10.52;4.97;;;16.10;94.00;;;;;;5010739;28;20030;-55
2022/06/16 05:43:30;;;;;;;6.78;3.80;;;16.20;94.90;;;;;;5011475;28;20157;-55
2022/06/16 05:45:56;;;;;;;9.10;5.63;;;16.10;95.70;;;;;;5011847;28;20101;-55
2022/06/16 05:48:22;;;;;;;7.13;4.38;;;16.10;96.40;;;;;;5012803;28;20128;-55
2022/06/16 05:50:47;;;;;;;8.88;4.68;;;16.00;96.70;;;;;;5012521;28;20033;-55
2022/06/16 05:53:13;;;;;;;7.00;4.07;;;16.10;96.10;;;;;;5011600;28;20021;-56
2022/06/16 05:55:39;;;;;;;5.43;3.80;;;16.00;95.80;;;;;;5012850;28;20507;-55
2022/06/16 05:58:05;;;;;;;8.80;4.38;;;16.10;95.80;;;;;;5012886;28;20507;-55
2022/06/16 06:00:31;;;;;;;9.32;5.13;;;16.10;95.90;;;;;;5012344;28;20022;-55
2022/06/16 06:02:58;;;;;;;9.20;4.85;;;16.10;95.20;;;;;;5012815;28;20038;-55
2022/06/16 06:05:25;;;;;;;9.57;4.22;;;16.00;95.00;;;;;;5012743;28;20491;-55
2022/06/16 06:18:49;;;;;;;11.43;5.05;;;16.00;95.50;;;;;;5012618;28;20048;-55
2022/06/16 06:21:14;;;;;;;8.43;4.47;;;16.10;95.80;;;;;;5011866;28;20038;-55
2022/06/16 06:23:40;;;;;;;13.35;4.88;;;16.10;95.30;;;;;;5012654;28;20038;-55
2022/06/16 06:26:05;;;;;;;5.50;4.20;;;16.20;95.40;;;;;;5012389;28;20030;-55
2022/06/16 06:28:31;;;;;;;8.55;4.95;;;16.30;95.10;;;;;;5012347;28;20554;-55
2022/06/16 06:30:56;;;;;;;7.03;4.25;;;16.30;94.70;;;;;;5011689;28;20487;-55
2022/06/16 06:33:22;;;;;;;6.72;4.43;;;16.50;94.80;;;;;;5010852;28;20040;-55
2022/06/16 06:35:47;;;;;;;7.68;4.55;;;16.70;94.70;;;;;;5012461;28;20475;-55
2022/06/16 06:38:13;;;;;;;8.40;4.13;;;16.90;94.10;;;;;;5012383;28;20053;-55
2022/06/16 06:40:39;;;;;;;7.78;3.85;;;17.20;93.50;;;;;;5011661;28;20031;-55
2022/06/16 06:43:05;;;;;;;5.72;4.00;;;17.30;92.90;;;;;;5012068;28;20034;-55
2022/06/16 06:45:31;;;;;;;7.85;3.55;;;17.50;92.50;;;;;;5011990;28;20117;-56
2022/06/16 06:47:57;;;;;;;7.13;4.47;;;17.80;92.70;;;;;;5011998;28;20105;-55
2022/06/16 06:50:30;;;;;;;9.18;3.10;;;17.90;91.60;;;;;;5011456;28;20431;-55
2022/06/16 06:52:55;;;;;;;8.73;4.13;;;18.10;91.90;;;;;;5010562;28;20033;-55
2022/06/16 06:55:22;;;;;;;7.60;3.70;;;18.30;91.40;;;;;;5012007;28;20029;-55
2022/06/16 06:57:51;;;;;;;6.53;3.50;;;18.40;91.50;;;;;;5012235;28;20104;-55
2022/06/16 07:00:17;;;;;;;5.72;3.55;;;18.40;90.30;;;;;;5009810;28;20034;-55
2022/06/16 07:02:43;;;;;;;8.35;3.90;;;18.50;90.00;;;;;;5011711;28;20030;-55
2022/06/16 07:05:08;;;;;;;5.47;3.75;;;18.50;90.40;;;;;;5011678;28;20029;-55
2022/06/16 07:07:35;;;;;;;8.60;3.78;;;18.60;89.80;;;;;;5011660;28;20024;-55
2022/06/16 07:10:01;;;;;;;6.25;3.83;;;18.60;89.60;;;;;;5011020;28;20127;-55
2022/06/16 07:12:27;;;;;;;5.97;3.35;;;18.70;88.90;;;;;;5011575;28;20037;-55
2022/06/16 07:14:52;;;;;;;6.75;3.28;;;18.70;88.60;;;;;;5011276;28;20038;-56
2022/06/16 07:17:21;;;;;;;5.15;3.50;;;18.80;88.40;;;;;;5011633;28;20080;-55
2022/06/16 07:19:47;;;;;;;4.50;3.55;;;18.90;87.40;;;;;;5010665;28;20045;-55
2022/06/16 07:22:13;;;;;;;6.88;3.45;;;19.00;87.40;;;;;;5010905;28;20579;-55
2022/06/16 07:24:39;;;;;;;3.97;3.40;;;19.00;86.50;;;;;;5011350;28;20029;-56
2022/06/16 07:27:06;;;;;;;7.30;4.18;;;19.10;86.90;;;;;;5011259;28;20092;-55
2022/06/16 07:29:32;;;;;;;10.88;4.00;;;19.10;86.00;;;;;;5009098;28;20048;-55
2022/06/16 07:31:58;;;;;;;6.22;3.40;;;19.20;85.70;;;;;;5011138;28;20483;-56
2022/06/16 07:34:24;;;;;;;6.13;3.47;;;19.30;86.30;;;;;;5011371;28;20032;-55
2022/06/16 07:36:50;;;;;;;7.10;2.83;;;19.50;85.60;;;;;;5011048;28;20496;-55
2022/06/16 07:39:15;;;;;;;4.68;2.83;;;19.80;83.80;;;;;;5010946;28;20084;-56
2022/06/16 07:41:41;;;;;;;7.68;3.30;;;20.00;81.40;;;;;;5010384;28;20017;-55
2022/06/16 07:44:10;;;;;;;5.07;3.30;;;20.10;80.60;;;;;;5010920;28;20120;-55
2022/06/16 07:46:36;;;;;;;5.20;3.25;;;20.30;79.40;;;;;;5010901;28;20029;-55
2022/06/16 07:49:04;;;;;;;5.20;2.92;;;20.50;78.80;;;;;;5010953;28;20022;-55
2022/06/16 07:51:30;;;;;;;6.85;3.00;;;21.00;79.30;;;;;;5010637;28;20030;-55
2022/06/16 07:53:56;;;;;;;4.80;2.60;;;21.30;76.70;;;;;;5011173;28;20030;-55
2022/06/16 07:56:21;;;;;;;7.25;2.90;;;21.60;75.10;;;;;;5010878;28;20087;-55
2022/06/16 07:58:47;;;;;;;5.75;2.63;;;21.90;74.40;;;;;;5010918;28;20135;-55
2022/06/16 08:01:14;;;;;;;5.32;2.92;;;21.90;75.30;;;;;;5010160;28;20025;-55
2022/06/16 08:03:39;;;;;;;6.30;2.78;;;21.90;73.40;;;;;;5011010;28;20034;-55
2022/06/16 08:06:08;;;;;;;6.97;3.17;;;22.20;73.50;;;;;;5011199;28;20414;-55
2022/06/16 08:08:33;;;;;;;4.28;2.90;;;22.50;72.20;;;;;;5010785;28;20022;-55
2022/06/16 08:10:59;;;;;;;4.20;2.47;;;23.00;70.30;;;;;;5010481;28;20366;-56
2022/06/16 08:13:26;;;;;;;5.13;2.30;;;23.80;69.70;;;;;;5010483;28;20030;-56
2022/06/16 08:15:53;;;;;;;5.70;2.45;;;24.50;66.00;;;;;;5010465;28;20053;-56
2022/06/16 08:18:21;;;;;;;3.15;2.33;;;25.60;64.70;;;;;;5010545;28;20084;-56
2022/06/16 08:20:48;;;;;;;4.47;2.83;;;27.20;61.10;;;;;;5009839;28;20097;-56
2022/06/16 08:23:14;;;;;;;4.95;2.40;;;28.00;58.50;;;;;;5010467;28;20072;-56
2022/06/16 08:25:42;;;;;;;4.93;2.90;;;28.60;56.40;;;;;;5010291;28;20479;-56
2022/06/16 08:28:09;;;;;;;5.65;2.17;;;29.30;56.50;;;;;;5010416;28;20026;-56
2022/06/16 08:30:35;;;;;;;4.85;2.00;;;29.70;53.60;;;;;;5009844;28;20060;-56
2022/06/16 08:33:02;;;;;;;3.97;1.98;;;30.00;53.20;;;;;;5009184;28;20061;-56
2022/06/16 08:35:28;;;;;;;5.28;2.75;;;31.40;51.40;;;;;;5010315;28;20018;-56
2022/06/16 08:37:53;;;;;;;3.85;2.47;;;30.60;50.00;;;;;;5010262;28;20423;-56
2022/06/16 08:40:19;;;;;;;3.38;2.03;;;31.30;50.00;;;;;;5009501;28;20018;-56
2022/06/16 08:42:52;;;;;;;1.75;1.60;;;31.20;49.70;;;;;;5010131;28;20026;-56
2022/06/16 08:45:36;;;;;;;6.25;2.55;;;31.50;49.40;;;;;;5010217;28;20454;-56
2022/06/16 08:48:07;;;;;;;2.63;1.80;;;31.40;48.90;;;;;;5010078;28;20065;-56
2022/06/16 08:50:59;;;;;;;3.60;1.92;;;31.90;49.80;;;;;;5008048;28;20576;-56
2022/06/16 08:53:54;;;;;;;3.03;1.92;;;32.90;48.60;;;;;;5009623;28;20022;-56
2022/06/16 08:56:42;;;;;;;5.70;2.10;;;33.40;46.70;;;;;;5010049;28;20056;-57
2022/06/16 08:59:39;;;;;;;4.57;1.93;;;34.20;45.00;;;;;;5009952;28;20263;-58
2022/06/16 09:02:17;;;;;;;3.38;1.88;;;34.60;45.10;;;;;;5010203;28;20076;-56
2022/06/16 09:04:52;;;;;;;3.40;1.70;;;34.30;44.60;;;;;;5009929;28;20490;-56
2022/06/16 09:07:26;;;;;;;5.43;2.63;;;34.00;45.50;;;;;;5009716;28;20065;-57
2022/06/16 09:10:14;;;;;;;4.57;2.00;;;34.00;45.40;;;;;;5009381;28;20029;-56
2022/06/16 09:13:04;;;;;;;5.97;2.17;;;34.10;44.60;;;;;;5009851;28;20033;-57
2022/06/16 09:15:52;;;;;;;4.47;2.33;;;34.30;44.70;;;;;;5009721;28;20026;-57
2022/06/16 09:18:43;;;;;;;3.60;1.92;;;35.10;44.60;;;;;;5009904;28;20028;-57
2022/06/16 09:21:29;;;;;;;4.70;2.00;;;35.20;43.80;;;;;;5009232;28;20021;-57
2022/06/16 09:24:06;;;;;;;4.55;2.05;;;35.20;42.30;;;;;;5009599;28;20026;-56
2022/06/16 09:26:53;;;;;;;3.38;1.80;;;34.80;43.30;;;;;;5009709;28;20026;-57
2022/06/16 09:29:42;;;;;;;5.88;2.40;;;35.20;43.40;;;;;;5009689;28;20394;-57
2022/06/16 09:32:19;;;;;;;2.30;1.88;;;35.80;42.50;;;;;;5010105;28;20025;-57
2022/06/16 09:35:07;;;;;;;3.85;2.20;;;35.60;41.90;;;;;;5009557;28;20030;-57
2022/06/16 09:37:59;;;;;;;5.80;2.20;;;36.10;41.80;;;;;;5009677;28;20161;-56
2022/06/16 09:40:35;;;;;;;4.43;2.00;;;36.10;42.10;;;;;;5008974;28;20032;-57
2022/06/16 09:43:03;;;;;;;2.63;1.83;;;36.00;42.80;;;;;;5009562;28;20338;-57
2022/06/16 09:45:34;;;;;;;5.07;2.15;;;35.70;41.40;;;;;;5012917;28;20061;-57
2022/06/16 09:48:42;;;;;;;4.30;2.00;;;35.10;42.00;;;;;;5013252;28;20486;-57
2022/06/16 09:51:14;;;;;;;3.17;2.20;;;34.60;43.10;;;;;;5006909;28;20044;-57
2022/06/16 09:53:48;;;;;;;6.22;2.00;;;34.90;43.20;;;;;;5013056;28;20033;-57
2022/06/16 09:56:22;;;;;;;8.02;2.33;;;34.50;43.30;;;;;;5013113;28;20022;-57
2022/06/16 09:58:51;;;;;;;6.47;2.10;;;33.00;43.40;;;;;;5013388;28;20491;-57
2022/06/16 10:01:19;;;;;;;5.03;2.28;;;31.80;45.60;;;;;;5012284;28;20026;-57
2022/06/16 10:04:00;;;;;;;7.30;1.92;;;31.20;45.90;;;;;;5012753;28;20487;-55
2022/06/16 10:06:30;;;;;;;3.63;2.20;;;30.00;47.30;;;;;;5012759;28;20034;-55
2022/06/16 10:09:39;;;;;;;5.07;2.40;;;29.20;48.70;;;;;;5012687;28;20041;-56
2022/06/16 10:12:12;;;;;;;3.92;1.85;;;28.50;49.60;;;;;;5012412;28;20057;-55
2022/06/16 10:14:44;;;;;;;6.35;2.47;;;28.80;50.10;;;;;;5012392;28;20064;-55
2022/06/16 10:17:14;;;;;;;2.80;2.15;;;30.10;47.40;;;;;;5012619;28;20058;-55
2022/06/16 10:19:44;;;;;;;2.72;1.90;;;31.00;46.10;;;;;;5010384;28;20533;-55
2022/06/16 10:22:14;;;;;;;;;;;30.80;45.80;;;;;;5012818;28;20030;-55
2022/06/16 10:24:49;;;;;;;4.63;2.42;;;30.50;46.10;;;;;;5012428;28;20201;-56
2022/06/16 10:27:18;;;;;;;4.40;2.10;;;30.70;47.00;;;;;;5012300;28;20479;-55
2022/06/16 10:29:58;;;;;;;4.07;1.90;;;32.10;46.10;;;;;;5011745;28;20036;-55
2022/06/16 10:32:41;;;;;;;3.45;1.70;;;33.00;43.80;;;;;;5012314;28;20100;-56
2022/06/16 10:35:14;;;;;;;4.50;1.80;;;33.70;42.40;;;;;;5012026;28;20030;-56
2022/06/16 10:37:42;;;;;;;2.28;1.83;;;34.80;42.10;;;;;;5012311;28;20077;-56
2022/06/16 10:40:13;;;;;;;4.30;2.03;;;36.10;40.80;;;;;;5011410;28;20037;-56
2022/06/16 10:42:44;;;;;;;3.40;1.80;;;35.80;41.90;;;;;;5012262;28;20025;-56
2022/06/16 10:45:21;;;;;;;5.85;2.05;;;36.40;40.70;;;;;;5012126;28;20450;-56
2022/06/16 10:47:53;;;;;;;5.70;1.98;;;34.60;40.80;;;;;;5012172;28;20022;-56
2022/06/16 10:50:24;;;;;;;5.13;1.67;;;34.00;41.60;;;;;;5011572;28;20026;-55
2022/06/16 10:52:54;;;;;;;5.10;1.85;;;32.80;43.10;;;;;;5012228;28;20033;-56
2022/06/16 10:55:21;;;;;;;;;;;33.20;43.20;;;;;;5011333;28;20454;-56
2022/06/16 10:58:15;;;;;;;3.78;2.00;;;33.20;42.90;;;;;;5011839;28;19959;-55
2022/06/16 11:00:40;;;;;;;5.00;2.22;;;34.60;42.40;;;;;;5011264;28;20030;-56
2022/06/16 11:03:15;;;;;;;5.28;1.67;;;35.00;40.70;;;;;;5011741;28;20483;-56
2022/06/16 11:05:51;;;;;;;3.83;1.75;;;34.40;42.10;;;;;;5011721;28;20017;-55
2022/06/16 11:08:17;;;;;;;2.47;1.63;;;33.00;43.10;;;;;;5011525;28;20088;-55
2022/06/16 11:10:52;;;;;;;1.85;1.42;;;31.90;44.70;;;;;;5010985;28;20471;-55
2022/06/16 11:13:31;;;;;;;4.20;1.83;;;32.40;44.20;;;;;;5011923;28;20034;-55
2022/06/16 11:15:57;;;;;;;5.78;2.13;;;33.20;43.80;;;;;;5011544;28;20403;-55
2022/06/16 11:18:26;;;;;;;5.20;1.92;;;32.60;42.70;;;;;;5011876;28;20022;-56
2022/06/16 11:20:55;;;;;;;2.75;1.83;;;33.70;42.60;;;;;;5009480;28;20025;-56
2022/06/16 11:23:21;;;;;;;3.45;1.60;;;34.20;41.60;;;;;;5011411;28;20034;-56
2022/06/16 11:25:52;;;;;;;5.20;1.77;;;34.70;42.60;;;;;;5009999;28;20088;-55
2022/06/16 11:28:21;;;;;;;2.90;1.52;;;35.10;41.10;;;;;;5010063;28;20032;-56
2022/06/16 11:30:47;;;;;;;4.28;1.88;;;35.10;40.50;;;;;;5010612;28;20100;-55
2022/06/16 11:36:29;;;;;;;3.55;1.75;;;34.50;41.00;;;;;;5011226;28;20033;-55
2022/06/16 11:38:58;;;;;;;3.17;1.50;;;33.70;41.60;;;;;;5011266;28;20021;-55
2022/06/16 11:41:26;;;;;;;5.30;1.80;;;34.20;40.90;;;;;;5010449;28;20112;-55
2022/06/16 11:44:14;;;;;;;1.85;1.60;;;33.20;43.30;;;;;;5011020;28;20117;-56
2022/06/16 11:46:56;;;;;;;4.43;1.60;;;33.40;43.20;;;;;;5010966;28;20471;-55
2022/06/16 11:49:54;;;;;;;3.42;2.00;;;33.60;42.30;;;;;;5010765;28;20069;-55
2022/06/16 11:52:22;;;;;;;3.80;1.60;;;33.70;43.10;;;;;;5010900;28;20034;-55
2022/06/16 11:55:21;;;;;;;3.22;1.60;;;33.90;42.00;;;;;;5010777;28;20033;-55
2022/06/16 11:58:06;;;;;;;3.67;1.63;;;33.60;41.90;;;;;;5010858;28;20113;-55
2022/06/16 12:00:41;;;;;;;4.15;1.73;;;33.40;42.10;;;;;;5010038;28;20030;-55
2022/06/16 12:03:36;;;;;;;5.88;1.88;;;32.80;42.50;;;;;;5010562;28;20113;-55
2022/06/16 12:06:16;;;;;;;5.78;1.77;;;32.50;43.50;;;;;;5010653;28;20014;-55
2022/06/16 12:08:54;;;;;;;2.50;1.55;;;30.80;44.00;;;;;;5010483;28;20189;-54
2022/06/16 12:11:40;;;;;;;4.20;1.90;;;30.20;45.50;;;;;;5010119;28;20018;-55
2022/06/16 12:14:30;;;;;;;4.63;1.90;;;29.70;45.40;;;;;;5010667;28;20387;-55
2022/06/16 12:17:21;;;;;;;4.13;1.67;;;29.70;46.60;;;;;;5010961;28;20132;-55
2022/06/16 12:19:59;;;;;;;4.82;1.90;;;30.20;45.60;;;;;;5009820;28;20576;-55
2022/06/16 12:22:36;;;;;;;3.60;1.50;;;30.40;46.10;;;;;;5010324;28;20050;-56
2022/06/16 12:25:06;;;;;;;4.10;1.80;;;30.80;46.20;;;;;;5010387;28;20030;-56
2022/06/16 12:27:36;;;;;;;;;;;30.50;45.50;;;;;;5009444;28;20034;-55
2022/06/16 12:30:10;;;;;;;3.65;1.85;;;30.10;46.40;;;;;;5009856;28;19906;-55
2022/06/16 12:32:44;;;;;;;4.20;1.77;;;29.80;46.40;;;;;;5010192;28;20407;-55
2022/06/16 12:35:36;;;;;;;4.18;1.85;;;29.60;46.20;;;;;;5010147;28;20464;-55
2022/06/16 12:38:20;;;;;;;1.77;1.27;;;28.80;47.30;;;;;;5010333;28;20444;-55
2022/06/16 12:40:50;;;;;;;3.03;1.63;;;28.10;48.40;;;;;;5009561;28;20287;-55
2022/06/16 12:43:45;;;;;;;;;;;27.60;49.50;;;;;;5010636;28;20061;-55
2022/06/16 12:46:18;;;;;;;4.10;1.67;;;27.90;50.20;;;;;;4997001;28;19912;-55
2022/06/16 12:48:49;;;;;;;3.67;1.80;;;27.60;49.40;;;;;;5010340;28;20228;-55
2022/06/16 12:51:20;;;;;;;5.38;1.98;;;27.40;50.70;;;;;;5009630;28;20165;-55
2022/06/16 12:53:58;;;;;;;3.50;1.83;;;27.80;50.20;;;;;;5009947;28;20120;-55
2022/06/16 12:56:47;;;;;;;3.28;1.90;;;27.60;49.10;;;;;;5009975;28;20083;-55
2022/06/16 12:59:21;;;;;;;3.47;2.08;;;27.50;50.20;;;;;;5009924;28;20482;-55
2022/06/16 13:01:51;;;;;;;4.38;1.88;;;27.30;50.60;;;;;;5009322;28;20022;-56
2022/06/16 13:04:26;;;;;;;4.63;1.90;;;27.50;51.00;;;;;;5009919;28;20116;-55
2022/06/16 13:06:54;;;;;;;6.65;1.65;;;27.80;49.90;;;;;;5010091;28;20534;-55
2022/06/16 13:09:23;;;;;;;5.80;1.80;;;28.30;49.40;;;;;;5010117;28;20032;-55
2022/06/16 13:12:01;;;;;;;2.35;1.65;;;28.40;48.80;;;;;;5009521;28;20391;-55
2022/06/16 13:14:58;;;;;;;2.65;1.85;;;27.80;49.30;;;;;;5008492;28;20029;-55
2022/06/16 13:17:30;;;;;;;4.45;2.15;;;28.00;49.70;;;;;;5009775;28;20088;-55
2022/06/16 13:20:04;;;;;;;3.25;1.50;;;28.30;49.70;;;;;;5011992;28;20034;-55
2022/06/16 13:22:43;;;;;;;6.93;1.90;;;28.50;50.00;;;;;;5013955;28;20109;-56
2022/06/16 13:25:12;;;;;;;5.60;1.80;;;28.80;47.50;;;;;;5013815;28;20503;-55
2022/06/16 13:27:38;;;;;;;4.97;2.07;;;28.90;48.10;;;;;;5013632;28;20112;-56
2022/06/16 13:30:07;;;;;;;3.40;1.80;;;29.10;47.00;;;;;;5012940;28;20169;-55
2022/06/16 13:32:38;;;;;;;2.83;2.10;;;29.20;47.40;;;;;;5012282;28;20061;-55